sensor_id;sensor_type;location;lat;lon;timestamp;temperature;humidity
81140;SHT31;70624;51.978;5.656;2023-06-10T00:00:51;23.5;45.0
81140;SHT31;70624;51.978;5.656;2023-06-10T00:03:19;23.4;45.2
81140;SHT31;70624;51.978;5.656;2023-06-10T00:05:49;23.4;45.4
81140;SHT31;70624;51.978;5.656;2023-06-10T00:08:18;23.4;45.4
81140;SHT31;70624;51.978;5.656;2023-06-10T00:10:47;23.3;45.4
81140;SHT31;70624;51.978;5.656;2023-06-10T00:13:15;23.3;45.5
81140;SHT31;70624;51.978;5.656;2023-06-10T00:15:46;23.3;45.5
81140;SHT31;70624;51.978;5.656;2023-06-10T00:18:17;23.2;45.7
81140;SHT31;70624;51.978;5.656;2023-06-10T00:20:48;23.2;45.7
81140;SHT31;70624;51.978;5.656;2023-06-10T00:23:19;23.2;45.8
81140;SHT31;70624;51.978;5.656;2023-06-10T00:25:49;23.1;45.8
81140;SHT31;70624;51.978;5.656;2023-06-10T00:28:17;23.1;45.8
81140;SHT31;70624;51.978;5.656;2023-06-10T00:30:46;23.1;45.6
81140;SHT31;70624;51.978;5.656;2023-06-10T00:33:14;23.1;45.6
81140;SHT31;70624;51.978;5.656;2023-06-10T00:35:43;23.0;45.7
81140;SHT31;70624;51.978;5.656;2023-06-10T00:38:13;23.0;45.7
81140;SHT31;70624;51.978;5.656;2023-06-10T00:40:43;23.0;45.4
81140;SHT31;70624;51.978;5.656;2023-06-10T00:43:14;23.0;45.3
81140;SHT31;70624;51.978;5.656;2023-06-10T00:45:42;22.9;45.5
81140;SHT31;70624;51.978;5.656;2023-06-10T00:48:11;22.9;45.4
81140;SHT31;70624;51.978;5.656;2023-06-10T00:50:40;22.9;45.1
81140;SHT31;70624;51.978;5.656;2023-06-10T00:53:09;22.9;45.1
81140;SHT31;70624;51.978;5.656;2023-06-10T00:55:41;22.8;44.9
81140;SHT31;70624;51.978;5.656;2023-06-10T00:58:10;22.8;44.6
81140;SHT31;70624;51.978;5.656;2023-06-10T01:00:39;22.8;44.6
81140;SHT31;70624;51.978;5.656;2023-06-10T01:03:08;22.7;44.6
81140;SHT31;70624;51.978;5.656;2023-06-10T01:05:38;22.7;44.7
81140;SHT31;70624;51.978;5.656;2023-06-10T01:08:12;22.7;44.5
81140;SHT31;70624;51.978;5.656;2023-06-10T01:10:53;22.6;44.7
81140;SHT31;70624;51.978;5.656;2023-06-10T01:13:25;22.6;44.6
81140;SHT31;70624;51.978;5.656;2023-06-10T01:15:58;22.6;44.6
81140;SHT31;70624;51.978;5.656;2023-06-10T01:18:31;22.6;44.6
81140;SHT31;70624;51.978;5.656;2023-06-10T01:21:00;22.5;44.5
81140;SHT31;70624;51.978;5.656;2023-06-10T01:23:32;22.5;44.5
81140;SHT31;70624;51.978;5.656;2023-06-10T01:26:06;22.5;44.5
81140;SHT31;70624;51.978;5.656;2023-06-10T01:28:40;22.4;44.7
81140;SHT31;70624;51.978;5.656;2023-06-10T01:31:18;22.4;44.6
81140;SHT31;70624;51.978;5.656;2023-06-10T01:33:52;22.4;44.4
81140;SHT31;70624;51.978;5.656;2023-06-10T01:36:23;22.4;44.5
81140;SHT31;70624;51.978;5.656;2023-06-10T01:38:53;22.3;44.4
81140;SHT31;70624;51.978;5.656;2023-06-10T01:41:24;22.3;44.6
81140;SHT31;70624;51.978;5.656;2023-06-10T01:43:56;22.3;44.5
81140;SHT31;70624;51.978;5.656;2023-06-10T01:46:25;22.2;44.4
81140;SHT31;70624;51.978;5.656;2023-06-10T01:48:53;22.2;44.5
81140;SHT31;70624;51.978;5.656;2023-06-10T01:51:22;22.2;44.4
81140;SHT31;70624;51.978;5.656;2023-06-10T01:53:50;22.2;44.5
81140;SHT31;70624;51.978;5.656;2023-06-10T01:56:19;22.1;44.5
81140;SHT31;70624;51.978;5.656;2023-06-10T01:58:48;22.1;44.6
81140;SHT31;70624;51.978;5.656;2023-06-10T02:01:19;22.1;44.8
81140;SHT31;70624;51.978;5.656;2023-06-10T02:03:47;22.0;44.7
81140;SHT31;70624;51.978;5.656;2023-06-10T02:06:16;22.0;44.8
81140;SHT31;70624;51.978;5.656;2023-06-10T02:08:44;22.0;44.7
81140;SHT31;70624;51.978;5.656;2023-06-10T02:11:13;22.0;44.8
81140;SHT31;70624;51.978;5.656;2023-06-10T02:13:41;21.9;44.9
81140;SHT31;70624;51.978;5.656;2023-06-10T02:16:10;21.9;44.7
81140;SHT31;70624;51.978;5.656;2023-06-10T02:18:41;21.9;45.0
81140;SHT31;70624;51.978;5.656;2023-06-10T02:21:10;21.8;45.0
81140;SHT31;70624;51.978;5.656;2023-06-10T02:23:39;21.8;45.0
81140;SHT31;70624;51.978;5.656;2023-06-10T02:26:07;21.8;45.1
81140;SHT31;70624;51.978;5.656;2023-06-10T02:28:36;21.8;45.3
81140;SHT31;70624;51.978;5.656;2023-06-10T02:31:04;21.7;45.5
81140;SHT31;70624;51.978;5.656;2023-06-10T02:33:33;21.7;45.7
81140;SHT31;70624;51.978;5.656;2023-06-10T02:36:06;21.7;45.9
81140;SHT31;70624;51.978;5.656;2023-06-10T02:38:39;21.6;46.0
81140;SHT31;70624;51.978;5.656;2023-06-10T02:41:08;21.6;46.0
81140;SHT31;70624;51.978;5.656;2023-06-10T02:43:36;21.6;46.2
81140;SHT31;70624;51.978;5.656;2023-06-10T02:46:05;21.5;46.3
81140;SHT31;70624;51.978;5.656;2023-06-10T02:48:45;21.5;46.6
81140;SHT31;70624;51.978;5.656;2023-06-10T02:51:15;21.5;46.7
81140;SHT31;70624;51.978;5.656;2023-06-10T02:53:44;21.4;46.8
81140;SHT31;70624;51.978;5.656;2023-06-10T02:56:15;21.4;46.9
81140;SHT31;70624;51.978;5.656;2023-06-10T02:58:44;21.4;47.2
81140;SHT31;70624;51.978;5.656;2023-06-10T03:01:14;21.4;47.3
81140;SHT31;70624;51.978;5.656;2023-06-10T03:03:42;21.3;47.4
81140;SHT31;70624;51.978;5.656;2023-06-10T03:06:13;21.3;47.6
81140;SHT31;70624;51.978;5.656;2023-06-10T03:08:42;21.3;47.7
81140;SHT31;70624;51.978;5.656;2023-06-10T03:11:12;21.3;47.8
81140;SHT31;70624;51.978;5.656;2023-06-10T03:13:40;21.2;48.0
81140;SHT31;70624;51.978;5.656;2023-06-10T03:16:09;21.2;48.2
81140;SHT31;70624;51.978;5.656;2023-06-10T03:18:38;21.2;48.4
81140;SHT31;70624;51.978;5.656;2023-06-10T03:21:07;21.2;48.5
81140;SHT31;70624;51.978;5.656;2023-06-10T03:23:37;21.1;48.4
81140;SHT31;70624;51.978;5.656;2023-06-10T03:26:06;21.1;48.7
81140;SHT31;70624;51.978;5.656;2023-06-10T03:28:36;21.1;48.8
81140;SHT31;70624;51.978;5.656;2023-06-10T03:31:04;21.1;48.7
81140;SHT31;70624;51.978;5.656;2023-06-10T03:33:33;21.1;48.8
81140;SHT31;70624;51.978;5.656;2023-06-10T03:36:02;21.1;48.8
81140;SHT31;70624;51.978;5.656;2023-06-10T03:38:31;21.0;48.9
81140;SHT31;70624;51.978;5.656;2023-06-10T03:40:59;21.0;48.9
81140;SHT31;70624;51.978;5.656;2023-06-10T03:43:28;21.0;49.1
81140;SHT31;70624;51.978;5.656;2023-06-10T03:45:57;21.0;49.3
81140;SHT31;70624;51.978;5.656;2023-06-10T03:48:26;21.0;49.3
81140;SHT31;70624;51.978;5.656;2023-06-10T03:50:55;21.0;49.4
81140;SHT31;70624;51.978;5.656;2023-06-10T03:53:23;20.9;49.6
81140;SHT31;70624;51.978;5.656;2023-06-10T03:55:54;20.9;49.6
81140;SHT31;70624;51.978;5.656;2023-06-10T03:58:23;20.9;49.8
81140;SHT31;70624;51.978;5.656;2023-06-10T04:00:52;20.9;49.8
81140;SHT31;70624;51.978;5.656;2023-06-10T04:03:21;20.9;50.0
81140;SHT31;70624;51.978;5.656;2023-06-10T04:05:50;20.8;50.0
81140;SHT31;70624;51.978;5.656;2023-06-10T04:08:19;20.8;50.2
81140;SHT31;70624;51.978;5.656;2023-06-10T04:10:48;20.8;50.3
81140;SHT31;70624;51.978;5.656;2023-06-10T04:13:17;20.8;50.4
81140;SHT31;70624;51.978;5.656;2023-06-10T04:15:46;20.8;50.5
81140;SHT31;70624;51.978;5.656;2023-06-10T04:18:14;20.8;50.6
81140;SHT31;70624;51.978;5.656;2023-06-10T04:20:43;20.7;50.6
81140;SHT31;70624;51.978;5.656;2023-06-10T04:23:12;20.7;50.8
81140;SHT31;70624;51.978;5.656;2023-06-10T04:25:41;20.7;50.9
81140;SHT31;70624;51.978;5.656;2023-06-10T04:28:10;20.7;51.0
81140;SHT31;70624;51.978;5.656;2023-06-10T04:30:38;20.7;50.9
81140;SHT31;70624;51.978;5.656;2023-06-10T04:33:08;20.7;51.1
81140;SHT31;70624;51.978;5.656;2023-06-10T04:35:36;20.7;51.2
81140;SHT31;70624;51.978;5.656;2023-06-10T04:38:05;20.7;51.4
81140;SHT31;70624;51.978;5.656;2023-06-10T04:40:33;20.7;51.6
81140;SHT31;70624;51.978;5.656;2023-06-10T04:43:04;20.7;51.5
81140;SHT31;70624;51.978;5.656;2023-06-10T04:45:33;20.7;51.5
81140;SHT31;70624;51.978;5.656;2023-06-10T04:48:01;20.7;51.8
81140;SHT31;70624;51.978;5.656;2023-06-10T04:50:31;20.7;51.7
81140;SHT31;70624;51.978;5.656;2023-06-10T04:53:00;20.7;51.7
81140;SHT31;70624;51.978;5.656;2023-06-10T04:55:29;20.7;51.7
81140;SHT31;70624;51.978;5.656;2023-06-10T04:57:58;20.7;51.7
81140;SHT31;70624;51.978;5.656;2023-06-10T05:00:26;20.7;51.9
81140;SHT31;70624;51.978;5.656;2023-06-10T05:02:55;20.8;52.0
81140;SHT31;70624;51.978;5.656;2023-06-10T05:05:23;20.8;52.1
81140;SHT31;70624;51.978;5.656;2023-06-10T05:07:52;20.9;51.7
81140;SHT31;70624;51.978;5.656;2023-06-10T05:10:21;20.9;51.9
81140;SHT31;70624;51.978;5.656;2023-06-10T05:12:52;21.0;51.8
81140;SHT31;70624;51.978;5.656;2023-06-10T05:15:20;21.0;51.6
81140;SHT31;70624;51.978;5.656;2023-06-10T05:17:49;21.1;51.7
81140;SHT31;70624;51.978;5.656;2023-06-10T05:20:18;21.1;51.5
81140;SHT31;70624;51.978;5.656;2023-06-10T05:22:47;21.2;51.5
81140;SHT31;70624;51.978;5.656;2023-06-10T05:25:15;21.3;52.1
81140;SHT31;70624;51.978;5.656;2023-06-10T05:27:45;21.4;51.3
81140;SHT31;70624;51.978;5.656;2023-06-10T05:30:14;21.5;50.9
81140;SHT31;70624;51.978;5.656;2023-06-10T05:32:45;21.6;50.8
81140;SHT31;70624;51.978;5.656;2023-06-10T05:35:15;21.6;50.5
81140;SHT31;70624;51.978;5.656;2023-06-10T05:37:44;21.7;50.3
81140;SHT31;70624;51.978;5.656;2023-06-10T05:40:13;21.7;50.6
81140;SHT31;70624;51.978;5.656;2023-06-10T05:42:42;21.8;50.5
81140;SHT31;70624;51.978;5.656;2023-06-10T05:45:13;21.9;51.0
81140;SHT31;70624;51.978;5.656;2023-06-10T05:47:42;21.9;50.4
81140;SHT31;70624;51.978;5.656;2023-06-10T05:50:11;22.0;50.5
81140;SHT31;70624;51.978;5.656;2023-06-10T05:52:40;22.1;50.9
81140;SHT31;70624;51.978;5.656;2023-06-10T05:55:09;22.2;50.2
81140;SHT31;70624;51.978;5.656;2023-06-10T05:57:38;22.3;49.8
81140;SHT31;70624;51.978;5.656;2023-06-10T06:00:07;22.3;49.8
81140;SHT31;70624;51.978;5.656;2023-06-10T06:02:36;22.4;49.5
81140;SHT31;70624;51.978;5.656;2023-06-10T06:05:05;22.5;50.0
81140;SHT31;70624;51.978;5.656;2023-06-10T06:07:36;22.6;49.8
81140;SHT31;70624;51.978;5.656;2023-06-10T06:10:05;22.7;49.8
81140;SHT31;70624;51.978;5.656;2023-06-10T06:12:34;22.8;50.0
81140;SHT31;70624;51.978;5.656;2023-06-10T06:15:03;22.8;48.9
81140;SHT31;70624;51.978;5.656;2023-06-10T06:17:33;22.9;48.4
81140;SHT31;70624;51.978;5.656;2023-06-10T06:20:02;23.0;49.2
81140;SHT31;70624;51.978;5.656;2023-06-10T06:22:31;23.0;48.4
81140;SHT31;70624;51.978;5.656;2023-06-10T06:25:01;23.1;48.2
81140;SHT31;70624;51.978;5.656;2023-06-10T06:27:31;23.2;48.6
81140;SHT31;70624;51.978;5.656;2023-06-10T06:29:59;23.3;50.0
81140;SHT31;70624;51.978;5.656;2023-06-10T06:32:28;23.4;48.1
81140;SHT31;70624;51.978;5.656;2023-06-10T06:34:57;23.5;48.1
81140;SHT31;70624;51.978;5.656;2023-06-10T06:37:26;23.6;49.9
81140;SHT31;70624;51.978;5.656;2023-06-10T06:39:55;23.7;48.2
81140;SHT31;70624;51.978;5.656;2023-06-10T06:42:23;23.8;47.1
81140;SHT31;70624;51.978;5.656;2023-06-10T06:44:52;23.9;47.2
81140;SHT31;70624;51.978;5.656;2023-06-10T06:47:20;24.1;46.8
81140;SHT31;70624;51.978;5.656;2023-06-10T06:49:49;24.3;46.8
81140;SHT31;70624;51.978;5.656;2023-06-10T06:52:17;24.4;45.8
81140;SHT31;70624;51.978;5.656;2023-06-10T06:54:48;24.5;45.6
81140;SHT31;70624;51.978;5.656;2023-06-10T06:57:17;24.7;45.3
81140;SHT31;70624;51.978;5.656;2023-06-10T06:59:46;24.8;46.1
81140;SHT31;70624;51.978;5.656;2023-06-10T07:02:14;24.9;44.8
81140;SHT31;70624;51.978;5.656;2023-06-10T07:04:45;25.1;44.1
81140;SHT31;70624;51.978;5.656;2023-06-10T07:07:15;25.2;44.1
81140;SHT31;70624;51.978;5.656;2023-06-10T07:09:44;25.3;44.5
81140;SHT31;70624;51.978;5.656;2023-06-10T07:12:14;25.4;43.7
81140;SHT31;70624;51.978;5.656;2023-06-10T07:14:44;25.5;46.7
81140;SHT31;70624;51.978;5.656;2023-06-10T07:17:15;25.7;44.0
81140;SHT31;70624;51.978;5.656;2023-06-10T07:19:44;25.9;43.5
81140;SHT31;70624;51.978;5.656;2023-06-10T07:22:14;26.1;43.0
81140;SHT31;70624;51.978;5.656;2023-06-10T07:24:43;26.2;42.0
81140;SHT31;70624;51.978;5.656;2023-06-10T07:27:11;26.4;42.2
81140;SHT31;70624;51.978;5.656;2023-06-10T07:29:40;26.5;43.1
81140;SHT31;70624;51.978;5.656;2023-06-10T07:32:09;26.6;41.7
81140;SHT31;70624;51.978;5.656;2023-06-10T07:34:37;26.7;42.3
81140;SHT31;70624;51.978;5.656;2023-06-10T07:37:06;26.8;40.3
81140;SHT31;70624;51.978;5.656;2023-06-10T07:39:35;26.9;39.9
81140;SHT31;70624;51.978;5.656;2023-06-10T07:42:04;27.0;39.7
81140;SHT31;70624;51.978;5.656;2023-06-10T07:44:33;27.0;39.5
81140;SHT31;70624;51.978;5.656;2023-06-10T07:47:01;27.0;39.5
81140;SHT31;70624;51.978;5.656;2023-06-10T07:49:30;27.1;41.1
81140;SHT31;70624;51.978;5.656;2023-06-10T07:51:59;27.2;40.5
81140;SHT31;70624;51.978;5.656;2023-06-10T07:54:27;27.3;40.2
81140;SHT31;70624;51.978;5.656;2023-06-10T07:56:56;27.5;38.4
81140;SHT31;70624;51.978;5.656;2023-06-10T07:59:24;27.6;39.1
81140;SHT31;70624;51.978;5.656;2023-06-10T08:01:53;27.8;39.2
81140;SHT31;70624;51.978;5.656;2023-06-10T08:04:22;27.9;38.2
81140;SHT31;70624;51.978;5.656;2023-06-10T08:06:50;28.0;38.5
81140;SHT31;70624;51.978;5.656;2023-06-10T08:09:19;28.1;38.0
81140;SHT31;70624;51.978;5.656;2023-06-10T08:11:48;28.3;37.7
81140;SHT31;70624;51.978;5.656;2023-06-10T08:14:17;28.4;37.7
81140;SHT31;70624;51.978;5.656;2023-06-10T08:16:46;28.6;38.0
81140;SHT31;70624;51.978;5.656;2023-06-10T08:19:14;28.7;36.4
81140;SHT31;70624;51.978;5.656;2023-06-10T08:21:43;28.9;35.9
81140;SHT31;70624;51.978;5.656;2023-06-10T08:24:12;29.0;35.1
81140;SHT31;70624;51.978;5.656;2023-06-10T08:26:42;29.2;35.8
81140;SHT31;70624;51.978;5.656;2023-06-10T08:29:11;29.3;35.2
81140;SHT31;70624;51.978;5.656;2023-06-10T08:31:43;29.4;34.8
81140;SHT31;70624;51.978;5.656;2023-06-10T08:34:12;29.6;34.6
81140;SHT31;70624;51.978;5.656;2023-06-10T08:36:42;29.7;34.5
81140;SHT31;70624;51.978;5.656;2023-06-10T08:39:13;29.8;35.7
81140;SHT31;70624;51.978;5.656;2023-06-10T08:41:43;30.0;36.0
81140;SHT31;70624;51.978;5.656;2023-06-10T08:44:17;30.1;34.3
81140;SHT31;70624;51.978;5.656;2023-06-10T08:46:54;30.3;34.8
81140;SHT31;70624;51.978;5.656;2023-06-10T08:49:26;30.4;34.9
81140;SHT31;70624;51.978;5.656;2023-06-10T08:51:59;30.5;34.6
81140;SHT31;70624;51.978;5.656;2023-06-10T08:54:32;30.6;34.3
81140;SHT31;70624;51.978;5.656;2023-06-10T08:57:05;30.7;34.4
81140;SHT31;70624;51.978;5.656;2023-06-10T08:59:34;30.8;34.3
81140;SHT31;70624;51.978;5.656;2023-06-10T09:02:06;30.9;34.6
81140;SHT31;70624;51.978;5.656;2023-06-10T09:04:36;31.0;34.7
81140;SHT31;70624;51.978;5.656;2023-06-10T09:07:06;31.0;34.3
81140;SHT31;70624;51.978;5.656;2023-06-10T09:09:35;31.1;32.7
81140;SHT31;70624;51.978;5.656;2023-06-10T09:12:05;31.2;33.2
81140;SHT31;70624;51.978;5.656;2023-06-10T09:14:33;31.2;33.1
81140;SHT31;70624;51.978;5.656;2023-06-10T09:17:02;31.3;32.8
81140;SHT31;70624;51.978;5.656;2023-06-10T09:19:32;31.3;33.0
81140;SHT31;70624;51.978;5.656;2023-06-10T09:22:01;31.4;32.9
81140;SHT31;70624;51.978;5.656;2023-06-10T09:24:29;31.4;32.1
81140;SHT31;70624;51.978;5.656;2023-06-10T09:27:05;31.4;32.4
81140;SHT31;70624;51.978;5.656;2023-06-10T09:29:47;31.5;32.6
81140;SHT31;70624;51.978;5.656;2023-06-10T09:32:17;31.5;32.2
81140;SHT31;70624;51.978;5.656;2023-06-10T09:34:47;31.5;33.0
81140;SHT31;70624;51.978;5.656;2023-06-10T09:37:22;31.5;33.0
81140;SHT31;70624;51.978;5.656;2023-06-10T09:40:05;31.5;32.8
81140;SHT31;70624;51.978;5.656;2023-06-10T09:42:36;31.6;33.0
81140;SHT31;70624;51.978;5.656;2023-06-10T09:45:06;31.7;32.7
81140;SHT31;70624;51.978;5.656;2023-06-10T09:47:35;31.7;33.2
81140;SHT31;70624;51.978;5.656;2023-06-10T09:50:04;31.8;33.1
81140;SHT31;70624;51.978;5.656;2023-06-10T09:52:33;31.8;32.6
81140;SHT31;70624;51.978;5.656;2023-06-10T09:55:02;31.9;32.6
81140;SHT31;70624;51.978;5.656;2023-06-10T09:57:32;32.0;31.7
81140;SHT31;70624;51.978;5.656;2023-06-10T10:00:04;32.0;31.1
81140;SHT31;70624;51.978;5.656;2023-06-10T10:02:48;32.1;31.4
81140;SHT31;70624;51.978;5.656;2023-06-10T10:05:18;32.1;31.6
81140;SHT31;70624;51.978;5.656;2023-06-10T10:07:48;32.2;28.9
81140;SHT31;70624;51.978;5.656;2023-06-10T10:10:18;32.2;30.6
81140;SHT31;70624;51.978;5.656;2023-06-10T10:12:48;32.2;31.0
81140;SHT31;70624;51.978;5.656;2023-06-10T10:15:18;32.3;31.4
81140;SHT31;70624;51.978;5.656;2023-06-10T10:17:55;32.3;31.2
81140;SHT31;70624;51.978;5.656;2023-06-10T10:20:29;32.4;31.4
81140;SHT31;70624;51.978;5.656;2023-06-10T10:23:03;32.4;31.4
81140;SHT31;70624;51.978;5.656;2023-06-10T10:25:37;32.5;31.4
81140;SHT31;70624;51.978;5.656;2023-06-10T10:28:09;32.6;29.8
81140;SHT31;70624;51.978;5.656;2023-06-10T10:30:41;32.7;29.7
81140;SHT31;70624;51.978;5.656;2023-06-10T10:33:13;32.8;29.2
81140;SHT31;70624;51.978;5.656;2023-06-10T10:35:46;32.9;29.7
81140;SHT31;70624;51.978;5.656;2023-06-10T10:38:15;32.9;28.4
81140;SHT31;70624;51.978;5.656;2023-06-10T10:40:45;32.9;28.2
81140;SHT31;70624;51.978;5.656;2023-06-10T10:43:16;33.0;29.0
81140;SHT31;70624;51.978;5.656;2023-06-10T10:45:46;33.0;28.8
81140;SHT31;70624;51.978;5.656;2023-06-10T10:48:15;33.0;28.0
81140;SHT31;70624;51.978;5.656;2023-06-10T10:50:57;33.1;27.3
81140;SHT31;70624;51.978;5.656;2023-06-10T10:53:28;33.1;27.0
81140;SHT31;70624;51.978;5.656;2023-06-10T10:56:04;33.1;27.2
81140;SHT31;70624;51.978;5.656;2023-06-10T10:58:34;33.1;27.4
81140;SHT31;70624;51.978;5.656;2023-06-10T11:01:12;33.1;26.2
81140;SHT31;70624;51.978;5.656;2023-06-10T11:03:46;33.1;27.1
81140;SHT31;70624;51.978;5.656;2023-06-10T11:06:17;33.1;26.2
81140;SHT31;70624;51.978;5.656;2023-06-10T11:08:49;33.0;25.4
81140;SHT31;70624;51.978;5.656;2023-06-10T11:11:24;33.0;25.7
81140;SHT31;70624;51.978;5.656;2023-06-10T11:14:06;32.9;26.5
81140;SHT31;70624;51.978;5.656;2023-06-10T11:16:41;32.9;24.8
81140;SHT31;70624;51.978;5.656;2023-06-10T11:19:33;32.8;25.0
81140;SHT31;70624;51.978;5.656;2023-06-10T11:22:05;32.8;25.6
81140;SHT31;70624;51.978;5.656;2023-06-10T11:24:33;32.8;25.9
81140;SHT31;70624;51.978;5.656;2023-06-10T11:27:18;32.7;26.1
81140;SHT31;70624;51.978;5.656;2023-06-10T11:30:21;32.6;25.8
81140;SHT31;70624;51.978;5.656;2023-06-10T11:32:54;32.5;25.2
81140;SHT31;70624;51.978;5.656;2023-06-10T11:35:27;32.5;25.3
81140;SHT31;70624;51.978;5.656;2023-06-10T11:37:56;32.5;26.1
81140;SHT31;70624;51.978;5.656;2023-06-10T11:40:26;32.5;24.8
81140;SHT31;70624;51.978;5.656;2023-06-10T11:42:58;32.5;24.7
81140;SHT31;70624;51.978;5.656;2023-06-10T11:45:26;32.5;25.3
81140;SHT31;70624;51.978;5.656;2023-06-10T11:47:59;32.5;26.0
81140;SHT31;70624;51.978;5.656;2023-06-10T11:50:32;32.5;25.8
81140;SHT31;70624;51.978;5.656;2023-06-10T11:53:01;32.5;25.1
81140;SHT31;70624;51.978;5.656;2023-06-10T11:55:43;32.5;26.1
81140;SHT31;70624;51.978;5.656;2023-06-10T11:58:15;32.5;26.0
81140;SHT31;70624;51.978;5.656;2023-06-10T12:00:49;32.5;26.7
81140;SHT31;70624;51.978;5.656;2023-06-10T12:03:20;32.5;25.5
81140;SHT31;70624;51.978;5.656;2023-06-10T12:06:00;32.4;25.6
81140;SHT31;70624;51.978;5.656;2023-06-10T12:08:30;32.4;25.6
81140;SHT31;70624;51.978;5.656;2023-06-10T12:10:59;32.4;25.5
81140;SHT31;70624;51.978;5.656;2023-06-10T12:13:28;32.3;26.4
81140;SHT31;70624;51.978;5.656;2023-06-10T12:16:09;32.2;26.1
81140;SHT31;70624;51.978;5.656;2023-06-10T12:18:40;32.2;26.0
81140;SHT31;70624;51.978;5.656;2023-06-10T12:21:17;32.2;25.5
81140;SHT31;70624;51.978;5.656;2023-06-10T12:24:02;32.1;26.6
81140;SHT31;70624;51.978;5.656;2023-06-10T12:26:42;32.1;26.2
81140;SHT31;70624;51.978;5.656;2023-06-10T12:29:17;32.0;25.1
81140;SHT31;70624;51.978;5.656;2023-06-10T12:31:57;32.0;26.2
81140;SHT31;70624;51.978;5.656;2023-06-10T12:34:30;32.0;26.2
81140;SHT31;70624;51.978;5.656;2023-06-10T12:37:00;31.9;26.2
81140;SHT31;70624;51.978;5.656;2023-06-10T12:39:31;31.9;26.0
81140;SHT31;70624;51.978;5.656;2023-06-10T12:42:00;31.9;26.9
81140;SHT31;70624;51.978;5.656;2023-06-10T12:44:34;31.8;27.0
81140;SHT31;70624;51.978;5.656;2023-06-10T12:47:07;31.8;26.1
81140;SHT31;70624;51.978;5.656;2023-06-10T12:49:36;31.8;26.0
81140;SHT31;70624;51.978;5.656;2023-06-10T12:52:06;31.8;25.5
81140;SHT31;70624;51.978;5.656;2023-06-10T12:54:35;31.8;25.9
81140;SHT31;70624;51.978;5.656;2023-06-10T12:57:05;31.7;26.4
81140;SHT31;70624;51.978;5.656;2023-06-10T12:59:33;31.7;26.8
81140;SHT31;70624;51.978;5.656;2023-06-10T13:02:02;31.7;26.3
81140;SHT31;70624;51.978;5.656;2023-06-10T13:04:31;31.6;26.0
81140;SHT31;70624;51.978;5.656;2023-06-10T13:07:00;31.6;26.2
81140;SHT31;70624;51.978;5.656;2023-06-10T13:09:28;31.6;26.5
81140;SHT31;70624;51.978;5.656;2023-06-10T13:11:57;31.6;27.0
81140;SHT31;70624;51.978;5.656;2023-06-10T13:14:26;31.6;26.9
81140;SHT31;70624;51.978;5.656;2023-06-10T13:16:55;31.6;26.2
81140;SHT31;70624;51.978;5.656;2023-06-10T13:19:23;31.6;27.1
81140;SHT31;70624;51.978;5.656;2023-06-10T13:21:53;31.6;26.5
81140;SHT31;70624;51.978;5.656;2023-06-10T13:24:22;31.6;26.4
81140;SHT31;70624;51.978;5.656;2023-06-10T13:26:50;31.6;25.6
81140;SHT31;70624;51.978;5.656;2023-06-10T13:29:19;31.6;25.7
81140;SHT31;70624;51.978;5.656;2023-06-10T13:31:48;31.6;26.2
81140;SHT31;70624;51.978;5.656;2023-06-10T13:34:17;31.5;26.4
81140;SHT31;70624;51.978;5.656;2023-06-10T13:36:45;31.5;27.1
81140;SHT31;70624;51.978;5.656;2023-06-10T13:39:14;31.5;26.3
81140;SHT31;70624;51.978;5.656;2023-06-10T13:41:46;31.5;26.1
81140;SHT31;70624;51.978;5.656;2023-06-10T13:44:14;31.5;26.7
81140;SHT31;70624;51.978;5.656;2023-06-10T13:46:43;31.5;26.4
81140;SHT31;70624;51.978;5.656;2023-06-10T13:49:11;31.5;26.2
81140;SHT31;70624;51.978;5.656;2023-06-10T13:51:40;31.4;26.5
81140;SHT31;70624;51.978;5.656;2023-06-10T13:54:09;31.4;26.8
81140;SHT31;70624;51.978;5.656;2023-06-10T13:56:37;31.4;25.8
81140;SHT31;70624;51.978;5.656;2023-06-10T13:59:06;31.4;26.2
81140;SHT31;70624;51.978;5.656;2023-06-10T14:01:35;31.4;25.8
81140;SHT31;70624;51.978;5.656;2023-06-10T14:04:04;31.4;25.5
81140;SHT31;70624;51.978;5.656;2023-06-10T14:06:35;31.4;25.4
81140;SHT31;70624;51.978;5.656;2023-06-10T14:09:03;31.4;26.0
81140;SHT31;70624;51.978;5.656;2023-06-10T14:11:32;31.4;26.6
81140;SHT31;70624;51.978;5.656;2023-06-10T14:14:03;31.4;26.3
81140;SHT31;70624;51.978;5.656;2023-06-10T14:16:31;31.4;25.9
81140;SHT31;70624;51.978;5.656;2023-06-10T14:19:00;31.4;24.8
81140;SHT31;70624;51.978;5.656;2023-06-10T14:21:29;31.4;24.9
81140;SHT31;70624;51.978;5.656;2023-06-10T14:23:57;31.3;24.4
81140;SHT31;70624;51.978;5.656;2023-06-10T14:26:26;31.3;24.2
81140;SHT31;70624;51.978;5.656;2023-06-10T14:28:56;31.3;25.0
81140;SHT31;70624;51.978;5.656;2023-06-10T14:31:25;31.3;25.3
81140;SHT31;70624;51.978;5.656;2023-06-10T14:33:53;31.3;26.4
81140;SHT31;70624;51.978;5.656;2023-06-10T14:36:22;31.3;25.1
81140;SHT31;70624;51.978;5.656;2023-06-10T14:38:51;31.3;24.7
81140;SHT31;70624;51.978;5.656;2023-06-10T14:41:20;31.3;24.2
81140;SHT31;70624;51.978;5.656;2023-06-10T14:43:48;31.2;24.5
81140;SHT31;70624;51.978;5.656;2023-06-10T14:46:17;31.2;25.0
81140;SHT31;70624;51.978;5.656;2023-06-10T14:48:47;31.2;25.8
81140;SHT31;70624;51.978;5.656;2023-06-10T14:51:16;31.2;26.5
81140;SHT31;70624;51.978;5.656;2023-06-10T14:53:47;31.2;26.5
81140;SHT31;70624;51.978;5.656;2023-06-10T14:56:17;31.2;25.4
81140;SHT31;70624;51.978;5.656;2023-06-10T14:58:45;31.2;24.8
81140;SHT31;70624;51.978;5.656;2023-06-10T15:01:14;31.2;25.6
81140;SHT31;70624;51.978;5.656;2023-06-10T15:03:42;31.2;26.0
81140;SHT31;70624;51.978;5.656;2023-06-10T15:06:11;31.2;26.8
81140;SHT31;70624;51.978;5.656;2023-06-10T15:08:43;31.2;26.9
81140;SHT31;70624;51.978;5.656;2023-06-10T15:11:15;31.2;27.3
81140;SHT31;70624;51.978;5.656;2023-06-10T15:13:43;31.2;27.0
81140;SHT31;70624;51.978;5.656;2023-06-10T15:16:12;31.2;27.1
81140;SHT31;70624;51.978;5.656;2023-06-10T15:18:41;31.2;27.4
81140;SHT31;70624;51.978;5.656;2023-06-10T15:21:10;31.2;27.0
81140;SHT31;70624;51.978;5.656;2023-06-10T15:23:38;31.2;26.5
81140;SHT31;70624;51.978;5.656;2023-06-10T15:26:07;31.2;26.6
81140;SHT31;70624;51.978;5.656;2023-06-10T15:28:37;31.2;26.7
81140;SHT31;70624;51.978;5.656;2023-06-10T15:31:06;31.2;26.7
81140;SHT31;70624;51.978;5.656;2023-06-10T15:33:34;31.2;26.6
81140;SHT31;70624;51.978;5.656;2023-06-10T15:36:06;31.2;27.0
81140;SHT31;70624;51.978;5.656;2023-06-10T15:38:34;31.1;27.0
81140;SHT31;70624;51.978;5.656;2023-06-10T15:41:05;31.1;27.2
81140;SHT31;70624;51.978;5.656;2023-06-10T15:43:34;31.1;27.3
81140;SHT31;70624;51.978;5.656;2023-06-10T15:46:02;31.1;27.3
81140;SHT31;70624;51.978;5.656;2023-06-10T15:48:33;31.1;27.3
81140;SHT31;70624;51.978;5.656;2023-06-10T15:51:01;31.1;27.3
81140;SHT31;70624;51.978;5.656;2023-06-10T15:53:30;31.1;27.0
81140;SHT31;70624;51.978;5.656;2023-06-10T15:55:58;31.0;27.1
81140;SHT31;70624;51.978;5.656;2023-06-10T15:58:27;31.0;27.2
81140;SHT31;70624;51.978;5.656;2023-06-10T16:00:56;31.0;27.3
81140;SHT31;70624;51.978;5.656;2023-06-10T16:03:25;31.0;27.3
81140;SHT31;70624;51.978;5.656;2023-06-10T16:05:53;31.0;26.8
81140;SHT31;70624;51.978;5.656;2023-06-10T16:08:24;31.0;27.6
81140;SHT31;70624;51.978;5.656;2023-06-10T16:10:53;31.0;27.4
81140;SHT31;70624;51.978;5.656;2023-06-10T16:13:21;30.9;26.9
81140;SHT31;70624;51.978;5.656;2023-06-10T16:15:50;30.9;27.5
81140;SHT31;70624;51.978;5.656;2023-06-10T16:18:19;30.9;27.5
81140;SHT31;70624;51.978;5.656;2023-06-10T16:20:47;30.9;27.8